sensor_id;sensor_type;location;lat;lon;timestamp;P1;durP1;ratioP1;P2;durP2;ratioP2
62709;SDS011;48770;51.624;5.886;2022-12-18T00:01:52;8.43;;;5.55;;
62709;SDS011;48770;51.624;5.886;2022-12-18T00:04:21;8.85;;;5.95;;
62709;SDS011;48770;51.624;5.886;2022-12-18T00:06:48;8.18;;;5.88;;
62709;SDS011;48770;51.624;5.886;2022-12-18T00:09:14;9.27;;;6.03;;
62709;SDS011;48770;51.624;5.886;2022-12-18T00:11:40;7.82;;;5.43;;
62709;SDS011;48770;51.624;5.886;2022-12-18T00:14:05;6.93;;;5.20;;
62709;SDS011;48770;51.624;5.886;2022-12-18T00:16:31;7.15;;;4.93;;
62709;SDS011;48770;51.624;5.886;2022-12-18T00:18:58;7.15;;;5.55;;
62709;SDS011;48770;51.624;5.886;2022-12-18T00:21:25;6.18;;;5.15;;
62709;SDS011;48770;51.624;5.886;2022-12-18T00:23:51;7.57;;;5.53;;
62709;SDS011;48770;51.624;5.886;2022-12-18T00:26:20;7.43;;;5.55;;
62709;SDS011;48770;51.624;5.886;2022-12-18T00:28:48;6.13;;;4.78;;
62709;SDS011;48770;51.624;5.886;2022-12-18T00:31:15;7.57;;;5.25;;
62709;SDS011;48770;51.624;5.886;2022-12-18T00:33:42;7.75;;;5.38;;
62709;SDS011;48770;51.624;5.886;2022-12-18T00:36:12;7.05;;;5.57;;
62709;SDS011;48770;51.624;5.886;2022-12-18T00:38:43;8.30;;;5.53;;
62709;SDS011;48770;51.624;5.886;2022-12-18T00:41:09;7.50;;;5.50;;
62709;SDS011;48770;51.624;5.886;2022-12-18T00:43:35;7.30;;;5.25;;
62709;SDS011;48770;51.624;5.886;2022-12-18T00:46:02;7.38;;;4.90;;
62709;SDS011;48770;51.624;5.886;2022-12-18T00:48:27;5.97;;;4.72;;
62709;SDS011;48770;51.624;5.886;2022-12-18T00:50:52;7.93;;;5.20;;
62709;SDS011;48770;51.624;5.886;2022-12-18T00:53:18;6.35;;;4.82;;
62709;SDS011;48770;51.624;5.886;2022-12-18T00:55:44;6.20;;;4.82;;
62709;SDS011;48770;51.624;5.886;2022-12-18T00:58:10;6.05;;;4.50;;
62709;SDS011;48770;51.624;5.886;2022-12-18T01:00:36;7.03;;;4.90;;
62709;SDS011;48770;51.624;5.886;2022-12-18T01:03:03;7.57;;;5.57;;
62709;SDS011;48770;51.624;5.886;2022-12-18T01:05:28;6.00;;;4.90;;
62709;SDS011;48770;51.624;5.886;2022-12-18T01:07:55;5.93;;;5.07;;
62709;SDS011;48770;51.624;5.886;2022-12-18T01:10:20;6.10;;;4.90;;
62709;SDS011;48770;51.624;5.886;2022-12-18T01:12:46;6.78;;;4.97;;
62709;SDS011;48770;51.624;5.886;2022-12-18T01:15:12;6.35;;;4.95;;
62709;SDS011;48770;51.624;5.886;2022-12-18T01:17:38;5.82;;;4.68;;
62709;SDS011;48770;51.624;5.886;2022-12-18T01:20:04;6.25;;;4.68;;
62709;SDS011;48770;51.624;5.886;2022-12-18T01:22:29;6.65;;;4.95;;
62709;SDS011;48770;51.624;5.886;2022-12-18T01:24:55;6.35;;;5.10;;
62709;SDS011;48770;51.624;5.886;2022-12-18T01:27:20;7.00;;;5.30;;
62709;SDS011;48770;51.624;5.886;2022-12-18T01:29:45;6.07;;;4.63;;
62709;SDS011;48770;51.624;5.886;2022-12-18T01:32:11;6.75;;;4.82;;
62709;SDS011;48770;51.624;5.886;2022-12-18T01:34:36;5.72;;;4.60;;
62709;SDS011;48770;51.624;5.886;2022-12-18T01:37:03;6.38;;;4.97;;
62709;SDS011;48770;51.624;5.886;2022-12-18T01:39:29;5.07;;;4.40;;
62709;SDS011;48770;51.624;5.886;2022-12-18T01:41:54;6.07;;;4.25;;
62709;SDS011;48770;51.624;5.886;2022-12-18T01:47:26;5.28;;;4.22;;
62709;SDS011;48770;51.624;5.886;2022-12-18T01:49:54;5.03;;;4.32;;
62709;SDS011;48770;51.624;5.886;2022-12-18T01:52:21;5.95;;;4.35;;
62709;SDS011;48770;51.624;5.886;2022-12-18T01:54:49;5.43;;;4.47;;
62709;SDS011;48770;51.624;5.886;2022-12-18T01:57:16;6.47;;;4.38;;
62709;SDS011;48770;51.624;5.886;2022-12-18T01:59:41;5.43;;;4.50;;
62709;SDS011;48770;51.624;5.886;2022-12-18T02:02:09;5.93;;;4.35;;
62709;SDS011;48770;51.624;5.886;2022-12-18T02:04:36;5.13;;;3.97;;
62709;SDS011;48770;51.624;5.886;2022-12-18T02:09:31;7.22;;;4.63;;
62709;SDS011;48770;51.624;5.886;2022-12-18T02:14:55;5.47;;;4.07;;
62709;SDS011;48770;51.624;5.886;2022-12-18T02:17:28;6.13;;;4.00;;
62709;SDS011;48770;51.624;5.886;2022-12-18T02:28:04;5.32;;;4.20;;
62709;SDS011;48770;51.624;5.886;2022-12-18T02:30:34;4.88;;;3.97;;
62709;SDS011;48770;51.624;5.886;2022-12-18T02:33:01;5.72;;;3.95;;
62709;SDS011;48770;51.624;5.886;2022-12-18T02:35:29;6.03;;;4.32;;
62709;SDS011;48770;51.624;5.886;2022-12-18T02:37:56;5.78;;;4.30;;
62709;SDS011;48770;51.624;5.886;2022-12-18T02:40:23;4.95;;;3.53;;
62709;SDS011;48770;51.624;5.886;2022-12-18T02:42:51;5.30;;;4.38;;
62709;SDS011;48770;51.624;5.886;2022-12-18T02:45:17;4.60;;;3.85;;
62709;SDS011;48770;51.624;5.886;2022-12-18T02:47:43;4.53;;;4.03;;
62709;SDS011;48770;51.624;5.886;2022-12-18T02:52:54;4.75;;;3.90;;
62709;SDS011;48770;51.624;5.886;2022-12-18T03:03:24;4.18;;;3.63;;
62709;SDS011;48770;51.624;5.886;2022-12-18T03:06:05;4.97;;;3.88;;
62709;SDS011;48770;51.624;5.886;2022-12-18T03:08:36;4.00;;;3.50;;
62709;SDS011;48770;51.624;5.886;2022-12-18T03:11:07;4.85;;;3.83;;
62709;SDS011;48770;51.624;5.886;2022-12-18T03:13:36;4.38;;;3.40;;
62709;SDS011;48770;51.624;5.886;2022-12-18T03:16:05;4.72;;;3.78;;
62709;SDS011;48770;51.624;5.886;2022-12-18T03:18:38;4.80;;;3.40;;
62709;SDS011;48770;51.624;5.886;2022-12-18T03:21:09;3.80;;;3.50;;
62709;SDS011;48770;51.624;5.886;2022-12-18T03:23:40;3.85;;;3.20;;
62709;SDS011;48770;51.624;5.886;2022-12-18T03:26:10;3.78;;;3.35;;
62709;SDS011;48770;51.624;5.886;2022-12-18T03:28:42;3.80;;;3.33;;
62709;SDS011;48770;51.624;5.886;2022-12-18T03:31:11;3.70;;;3.35;;
62709;SDS011;48770;51.624;5.886;2022-12-18T03:33:43;4.47;;;3.42;;
62709;SDS011;48770;51.624;5.886;2022-12-18T03:36:12;4.57;;;3.47;;
62709;SDS011;48770;51.624;5.886;2022-12-18T03:38:37;4.20;;;3.53;;
62709;SDS011;48770;51.624;5.886;2022-12-18T03:49:25;3.50;;;3.17;;
62709;SDS011;48770;51.624;5.886;2022-12-18T03:52:14;3.75;;;3.35;;
62709;SDS011;48770;51.624;5.886;2022-12-18T03:54:47;4.53;;;3.60;;
62709;SDS011;48770;51.624;5.886;2022-12-18T03:57:16;3.38;;;2.92;;
62709;SDS011;48770;51.624;5.886;2022-12-18T03:59:45;3.88;;;3.10;;
62709;SDS011;48770;51.624;5.886;2022-12-18T04:02:12;4.05;;;3.38;;
62709;SDS011;48770;51.624;5.886;2022-12-18T04:04:39;3.88;;;3.25;;
62709;SDS011;48770;51.624;5.886;2022-12-18T04:07:06;4.10;;;3.40;;
62709;SDS011;48770;51.624;5.886;2022-12-18T04:09:32;3.83;;;3.20;;
62709;SDS011;48770;51.624;5.886;2022-12-18T04:12:01;4.03;;;3.08;;
62709;SDS011;48770;51.624;5.886;2022-12-18T04:14:26;4.53;;;3.45;;
62709;SDS011;48770;51.624;5.886;2022-12-18T04:16:51;4.47;;;3.25;;
62709;SDS011;48770;51.624;5.886;2022-12-18T04:19:17;3.88;;;3.28;;
62709;SDS011;48770;51.624;5.886;2022-12-18T04:21:42;3.33;;;2.80;;
62709;SDS011;48770;51.624;5.886;2022-12-18T04:24:07;3.63;;;3.10;;
62709;SDS011;48770;51.624;5.886;2022-12-18T04:26:33;3.70;;;3.10;;
62709;SDS011;48770;51.624;5.886;2022-12-18T04:28:59;3.17;;;2.80;;
62709;SDS011;48770;51.624;5.886;2022-12-18T04:31:24;3.25;;;2.78;;
62709;SDS011;48770;51.624;5.886;2022-12-18T04:33:49;3.33;;;2.80;;
62709;SDS011;48770;51.624;5.886;2022-12-18T04:36:14;3.70;;;3.05;;
62709;SDS011;48770;51.624;5.886;2022-12-18T04:38:40;3.25;;;2.75;;
62709;SDS011;48770;51.624;5.886;2022-12-18T04:41:05;4.00;;;2.60;;
62709;SDS011;48770;51.624;5.886;2022-12-18T04:43:30;3.25;;;2.72;;
62709;SDS011;48770;51.624;5.886;2022-12-18T04:46:01;3.45;;;2.90;;
62709;SDS011;48770;51.624;5.886;2022-12-18T04:48:31;4.82;;;3.40;;
62709;SDS011;48770;51.624;5.886;2022-12-18T04:50:57;3.20;;;2.75;;
62709;SDS011;48770;51.624;5.886;2022-12-18T04:53:23;3.65;;;2.70;;
62709;SDS011;48770;51.624;5.886;2022-12-18T04:55:48;3.72;;;2.78;;
62709;SDS011;48770;51.624;5.886;2022-12-18T04:58:13;3.35;;;2.97;;
62709;SDS011;48770;51.624;5.886;2022-12-18T05:00:39;2.78;;;2.45;;
62709;SDS011;48770;51.624;5.886;2022-12-18T05:03:04;2.83;;;2.50;;
62709;SDS011;48770;51.624;5.886;2022-12-18T05:05:29;3.75;;;3.05;;
62709;SDS011;48770;51.624;5.886;2022-12-18T05:07:55;3.55;;;2.67;;
62709;SDS011;48770;51.624;5.886;2022-12-18T05:10:20;3.45;;;2.25;;
62709;SDS011;48770;51.624;5.886;2022-12-18T05:12:45;2.70;;;2.40;;
62709;SDS011;48770;51.624;5.886;2022-12-18T05:15:23;3.15;;;2.50;;
62709;SDS011;48770;51.624;5.886;2022-12-18T05:17:49;3.38;;;2.67;;
62709;SDS011;48770;51.624;5.886;2022-12-18T05:20:14;3.05;;;2.20;;
62709;SDS011;48770;51.624;5.886;2022-12-18T05:22:40;3.15;;;2.50;;
62709;SDS011;48770;51.624;5.886;2022-12-18T05:25:05;2.75;;;2.40;;
62709;SDS011;48770;51.624;5.886;2022-12-18T05:27:30;3.00;;;2.70;;
62709;SDS011;48770;51.624;5.886;2022-12-18T05:29:56;2.78;;;2.50;;
62709;SDS011;48770;51.624;5.886;2022-12-18T05:32:21;2.97;;;2.30;;
62709;SDS011;48770;51.624;5.886;2022-12-18T05:34:46;2.60;;;2.40;;
62709;SDS011;48770;51.624;5.886;2022-12-18T05:37:12;3.03;;;2.50;;
62709;SDS011;48770;51.624;5.886;2022-12-18T05:39:37;3.30;;;2.42;;
62709;SDS011;48770;51.624;5.886;2022-12-18T05:42:02;2.95;;;2.10;;
62709;SDS011;48770;51.624;5.886;2022-12-18T05:44:28;2.83;;;2.50;;
62709;SDS011;48770;51.624;5.886;2022-12-18T05:46:53;3.03;;;2.28;;
62709;SDS011;48770;51.624;5.886;2022-12-18T05:49:18;2.40;;;2.20;;
62709;SDS011;48770;51.624;5.886;2022-12-18T05:51:44;2.73;;;2.50;;
62709;SDS011;48770;51.624;5.886;2022-12-18T05:54:10;2.65;;;2.30;;
62709;SDS011;48770;51.624;5.886;2022-12-18T05:56:36;2.72;;;2.40;;
62709;SDS011;48770;51.624;5.886;2022-12-18T05:59:01;2.33;;;2.13;;
62709;SDS011;48770;51.624;5.886;2022-12-18T06:01:26;2.83;;;2.53;;
62709;SDS011;48770;51.624;5.886;2022-12-18T06:03:52;2.58;;;2.38;;
62709;SDS011;48770;51.624;5.886;2022-12-18T06:06:21;2.80;;;2.10;;
62709;SDS011;48770;51.624;5.886;2022-12-18T06:08:49;2.60;;;2.40;;
62709;SDS011;48770;51.624;5.886;2022-12-18T06:11:16;2.60;;;2.17;;
62709;SDS011;48770;51.624;5.886;2022-12-18T06:13:44;2.90;;;2.53;;
62709;SDS011;48770;51.624;5.886;2022-12-18T06:16:09;2.83;;;2.30;;
62709;SDS011;48770;51.624;5.886;2022-12-18T06:18:35;2.20;;;1.88;;
62709;SDS011;48770;51.624;5.886;2022-12-18T06:21:00;2.42;;;2.03;;
62709;SDS011;48770;51.624;5.886;2022-12-18T06:23:26;2.35;;;2.15;;
62709;SDS011;48770;51.624;5.886;2022-12-18T06:25:52;2.15;;;1.95;;
62709;SDS011;48770;51.624;5.886;2022-12-18T06:28:17;2.53;;;2.15;;
62709;SDS011;48770;51.624;5.886;2022-12-18T06:30:43;2.55;;;2.22;;
62709;SDS011;48770;51.624;5.886;2022-12-18T06:33:09;2.58;;;2.10;;
62709;SDS011;48770;51.624;5.886;2022-12-18T06:35:34;2.25;;;2.05;;
62709;SDS011;48770;51.624;5.886;2022-12-18T06:38:00;2.13;;;1.90;;
62709;SDS011;48770;51.624;5.886;2022-12-18T06:40:26;3.22;;;2.30;;
62709;SDS011;48770;51.624;5.886;2022-12-18T06:42:52;2.63;;;2.38;;
62709;SDS011;48770;51.624;5.886;2022-12-18T06:45:17;2.47;;;2.28;;
62709;SDS011;48770;51.624;5.886;2022-12-18T06:47:42;1.90;;;1.73;;
62709;SDS011;48770;51.624;5.886;2022-12-18T06:50:08;2.78;;;2.25;;
62709;SDS011;48770;51.624;5.886;2022-12-18T06:52:33;2.38;;;2.03;;
62709;SDS011;48770;51.624;5.886;2022-12-18T06:54:59;2.65;;;2.17;;
62709;SDS011;48770;51.624;5.886;2022-12-18T06:57:24;3.03;;;1.60;;
62709;SDS011;48770;51.624;5.886;2022-12-18T06:59:50;2.35;;;2.15;;
62709;SDS011;48770;51.624;5.886;2022-12-18T07:02:15;2.38;;;2.00;;
62709;SDS011;48770;51.624;5.886;2022-12-18T07:04:40;2.47;;;2.20;;
62709;SDS011;48770;51.624;5.886;2022-12-18T07:07:06;2.70;;;2.40;;
62709;SDS011;48770;51.624;5.886;2022-12-18T07:09:31;2.22;;;2.00;;
62709;SDS011;48770;51.624;5.886;2022-12-18T07:11:56;2.08;;;1.70;;
62709;SDS011;48770;51.624;5.886;2022-12-18T07:14:22;2.40;;;2.08;;
62709;SDS011;48770;51.624;5.886;2022-12-18T07:16:47;2.08;;;1.88;;
62709;SDS011;48770;51.624;5.886;2022-12-18T07:19:12;2.75;;;1.95;;
62709;SDS011;48770;51.624;5.886;2022-12-18T07:21:38;2.17;;;1.90;;
62709;SDS011;48770;51.624;5.886;2022-12-18T07:24:03;2.53;;;1.90;;
62709;SDS011;48770;51.624;5.886;2022-12-18T07:26:29;2.72;;;2.28;;
62709;SDS011;48770;51.624;5.886;2022-12-18T07:28:55;2.42;;;2.03;;
62709;SDS011;48770;51.624;5.886;2022-12-18T07:31:22;2.47;;;2.00;;
62709;SDS011;48770;51.624;5.886;2022-12-18T07:33:48;2.20;;;1.90;;
62709;SDS011;48770;51.624;5.886;2022-12-18T07:36:14;2.05;;;1.77;;
62709;SDS011;48770;51.624;5.886;2022-12-18T07:38:40;2.10;;;1.75;;
62709;SDS011;48770;51.624;5.886;2022-12-18T07:41:15;2.17;;;1.67;;
62709;SDS011;48770;51.624;5.886;2022-12-18T07:43:41;2.85;;;2.13;;
62709;SDS011;48770;51.624;5.886;2022-12-18T07:46:07;1.70;;;1.58;;
62709;SDS011;48770;51.624;5.886;2022-12-18T07:48:33;1.98;;;1.80;;
62709;SDS011;48770;51.624;5.886;2022-12-18T07:50:59;2.08;;;1.88;;
62709;SDS011;48770;51.624;5.886;2022-12-18T07:53:26;2.90;;;2.15;;
62709;SDS011;48770;51.624;5.886;2022-12-18T07:55:57;1.58;;;1.48;;
62709;SDS011;48770;51.624;5.886;2022-12-18T07:58:23;3.00;;;2.00;;
62709;SDS011;48770;51.624;5.886;2022-12-18T08:00:49;2.15;;;1.95;;
62709;SDS011;48770;51.624;5.886;2022-12-18T08:03:15;1.98;;;1.73;;
62709;SDS011;48770;51.624;5.886;2022-12-18T08:05:40;2.10;;;1.90;;
62709;SDS011;48770;51.624;5.886;2022-12-18T08:08:05;2.05;;;1.85;;
62709;SDS011;48770;51.624;5.886;2022-12-18T08:10:31;2.47;;;1.95;;
62709;SDS011;48770;51.624;5.886;2022-12-18T08:12:56;2.03;;;1.70;;
62709;SDS011;48770;51.624;5.886;2022-12-18T08:15:21;2.20;;;1.90;;
62709;SDS011;48770;51.624;5.886;2022-12-18T08:17:47;2.72;;;2.05;;
62709;SDS011;48770;51.624;5.886;2022-12-18T08:20:12;2.55;;;2.00;;
62709;SDS011;48770;51.624;5.886;2022-12-18T08:22:39;2.72;;;1.92;;
62709;SDS011;48770;51.624;5.886;2022-12-18T08:25:05;1.70;;;1.60;;
62709;SDS011;48770;51.624;5.886;2022-12-18T08:27:31;2.50;;;1.75;;
62709;SDS011;48770;51.624;5.886;2022-12-18T08:29:57;1.90;;;1.67;;
62709;SDS011;48770;51.624;5.886;2022-12-18T08:32:22;2.78;;;2.10;;
62709;SDS011;48770;51.624;5.886;2022-12-18T08:34:49;2.15;;;1.67;;
62709;SDS011;48770;51.624;5.886;2022-12-18T08:37:14;2.55;;;1.52;;
62709;SDS011;48770;51.624;5.886;2022-12-18T08:39:39;2.05;;;1.80;;
62709;SDS011;48770;51.624;5.886;2022-12-18T08:42:04;1.77;;;1.60;;
62709;SDS011;48770;51.624;5.886;2022-12-18T08:44:48;1.42;;;1.20;;
62709;SDS011;48770;51.624;5.886;2022-12-18T08:47:14;2.15;;;1.70;;
62709;SDS011;48770;51.624;5.886;2022-12-18T08:49:39;2.35;;;1.65;;
62709;SDS011;48770;51.624;5.886;2022-12-18T08:52:05;2.08;;;1.85;;
62709;SDS011;48770;51.624;5.886;2022-12-18T08:54:30;1.50;;;1.30;;
62709;SDS011;48770;51.624;5.886;2022-12-18T08:56:55;1.77;;;1.50;;
62709;SDS011;48770;51.624;5.886;2022-12-18T08:59:21;1.95;;;1.58;;
62709;SDS011;48770;51.624;5.886;2022-12-18T09:01:48;1.85;;;1.33;;
62709;SDS011;48770;51.624;5.886;2022-12-18T09:04:13;1.60;;;1.45;;
62709;SDS011;48770;51.624;5.886;2022-12-18T09:06:39;1.67;;;1.38;;
62709;SDS011;48770;51.624;5.886;2022-12-18T09:09:05;3.20;;;1.80;;
62709;SDS011;48770;51.624;5.886;2022-12-18T09:11:30;1.70;;;1.40;;
62709;SDS011;48770;51.624;5.886;2022-12-18T09:13:56;1.58;;;1.40;;
62709;SDS011;48770;51.624;5.886;2022-12-18T09:16:23;1.40;;;1.30;;
62709;SDS011;48770;51.624;5.886;2022-12-18T09:18:50;1.63;;;1.52;;
62709;SDS011;48770;51.624;5.886;2022-12-18T09:21:16;1.85;;;1.48;;
62709;SDS011;48770;51.624;5.886;2022-12-18T09:23:43;1.90;;;1.45;;
62709;SDS011;48770;51.624;5.886;2022-12-18T09:26:09;1.88;;;1.20;;
62709;SDS011;48770;51.624;5.886;2022-12-18T09:28:35;2.10;;;1.63;;
62709;SDS011;48770;51.624;5.886;2022-12-18T09:31:04;1.63;;;1.35;;
62709;SDS011;48770;51.624;5.886;2022-12-18T09:33:32;1.77;;;1.67;;
62709;SDS011;48770;51.624;5.886;2022-12-18T09:36:00;2.05;;;1.60;;
62709;SDS011;48770;51.624;5.886;2022-12-18T09:38:26;1.90;;;1.40;;
62709;SDS011;48770;51.624;5.886;2022-12-18T09:40:52;2.25;;;1.67;;
62709;SDS011;48770;51.624;5.886;2022-12-18T09:43:35;1.88;;;1.40;;
62709;SDS011;48770;51.624;5.886;2022-12-18T09:46:09;1.75;;;1.35;;
62709;SDS011;48770;51.624;5.886;2022-12-18T09:51:13;1.67;;;1.48;;
62709;SDS011;48770;51.624;5.886;2022-12-18T09:53:44;1.80;;;1.70;;
62709;SDS011;48770;51.624;5.886;2022-12-18T09:56:16;1.83;;;1.65;;
62709;SDS011;48770;51.624;5.886;2022-12-18T09:59:00;1.95;;;1.40;;
62709;SDS011;48770;51.624;5.886;2022-12-18T10:01:28;1.70;;;1.50;;
62709;SDS011;48770;51.624;5.886;2022-12-18T10:03:55;2.08;;;1.63;;
62709;SDS011;48770;51.624;5.886;2022-12-18T10:06:29;1.75;;;1.35;;
62709;SDS011;48770;51.624;5.886;2022-12-18T10:11:56;1.52;;;1.30;;
62709;SDS011;48770;51.624;5.886;2022-12-18T10:28:14;1.95;;;1.60;;
62709;SDS011;48770;51.624;5.886;2022-12-18T10:30:44;2.08;;;1.70;;
62709;SDS011;48770;51.624;5.886;2022-12-18T10:33:13;2.25;;;1.42;;
62709;SDS011;48770;51.624;5.886;2022-12-18T10:35:41;1.70;;;1.30;;
62709;SDS011;48770;51.624;5.886;2022-12-18T10:43:13;2.05;;;1.80;;
62709;SDS011;48770;51.624;5.886;2022-12-18T10:45:40;1.55;;;1.40;;
62709;SDS011;48770;51.624;5.886;2022-12-18T10:48:20;2.30;;;1.90;;
62709;SDS011;48770;51.624;5.886;2022-12-18T10:50:47;2.38;;;1.80;;
62709;SDS011;48770;51.624;5.886;2022-12-18T10:53:34;2.65;;;1.83;;
62709;SDS011;48770;51.624;5.886;2022-12-18T10:56:02;1.98;;;1.52;;
62709;SDS011;48770;51.624;5.886;2022-12-18T11:01:01;3.75;;;1.50;;
62709;SDS011;48770;51.624;5.886;2022-12-18T11:03:36;2.17;;;1.90;;
62709;SDS011;48770;51.624;5.886;2022-12-18T11:08:37;2.58;;;1.92;;
62709;SDS011;48770;51.624;5.886;2022-12-18T11:11:03;2.67;;;1.85;;
62709;SDS011;48770;51.624;5.886;2022-12-18T11:13:32;1.77;;;1.52;;
62709;SDS011;48770;51.624;5.886;2022-12-18T11:15:58;1.85;;;1.65;;
62709;SDS011;48770;51.624;5.886;2022-12-18T11:18:33;2.28;;;1.85;;
62709;SDS011;48770;51.624;5.886;2022-12-18T11:23:28;3.15;;;1.90;;
62709;SDS011;48770;51.624;5.886;2022-12-18T11:25:57;2.00;;;1.80;;
62709;SDS011;48770;51.624;5.886;2022-12-18T11:28:25;2.65;;;2.17;;
62709;SDS011;48770;51.624;5.886;2022-12-18T11:31:11;2.97;;;2.30;;
62709;SDS011;48770;51.624;5.886;2022-12-18T11:33:47;3.47;;;2.33;;
62709;SDS011;48770;51.624;5.886;2022-12-18T11:36:21;3.13;;;2.15;;
62709;SDS011;48770;51.624;5.886;2022-12-18T11:38:47;2.83;;;2.40;;
62709;SDS011;48770;51.624;5.886;2022-12-18T11:41:21;2.78;;;2.10;;
62709;SDS011;48770;51.624;5.886;2022-12-18T11:44:29;2.33;;;1.85;;
62709;SDS011;48770;51.624;5.886;2022-12-18T11:47:04;2.08;;;1.67;;
62709;SDS011;48770;51.624;5.886;2022-12-18T11:49:38;2.63;;;1.90;;
62709;SDS011;48770;51.624;5.886;2022-12-18T11:52:10;2.38;;;1.63;;
62709;SDS011;48770;51.624;5.886;2022-12-18T11:54:44;2.08;;;1.75;;
62709;SDS011;48770;51.624;5.886;2022-12-18T11:59:55;2.22;;;1.90;;
62709;SDS011;48770;51.624;5.886;2022-12-18T12:10:56;1.73;;;1.52;;
62709;SDS011;48770;51.624;5.886;2022-12-18T12:19:37;2.45;;;1.88;;
62709;SDS011;48770;51.624;5.886;2022-12-18T12:22:16;2.45;;;1.70;;
62709;SDS011;48770;51.624;5.886;2022-12-18T12:30:46;1.92;;;1.75;;
62709;SDS011;48770;51.624;5.886;2022-12-18T12:33:51;1.70;;;1.60;;
62709;SDS011;48770;51.624;5.886;2022-12-18T12:38:55;1.80;;;1.60;;
62709;SDS011;48770;51.624;5.886;2022-12-18T12:41:26;1.80;;;1.60;;
62709;SDS011;48770;51.624;5.886;2022-12-18T12:44:16;2.10;;;1.63;;
62709;SDS011;48770;51.624;5.886;2022-12-18T12:47:15;1.90;;;1.42;;
62709;SDS011;48770;51.624;5.886;2022-12-18T12:49:43;1.60;;;1.50;;
62709;SDS011;48770;51.624;5.886;2022-12-18T12:52:13;2.72;;;1.83;;
62709;SDS011;48770;51.624;5.886;2022-12-18T12:54:41;1.98;;;1.70;;
62709;SDS011;48770;51.624;5.886;2022-12-18T12:59:45;2.45;;;1.70;;
62709;SDS011;48770;51.624;5.886;2022-12-18T13:04:53;1.70;;;1.50;;
62709;SDS011;48770;51.624;5.886;2022-12-18T13:07:27;2.95;;;1.58;;
62709;SDS011;48770;51.624;5.886;2022-12-18T13:11:00;2.03;;;1.50;;
62709;SDS011;48770;51.624;5.886;2022-12-18T13:13:11;2.37;;;1.73;;
62709;SDS011;48770;51.624;5.886;2022-12-18T13:15:48;2.38;;;1.48;;
62709;SDS011;48770;51.624;5.886;2022-12-18T13:18:28;1.85;;;1.63;;
62709;SDS011;48770;51.624;5.886;2022-12-18T13:23:29;1.83;;;1.57;;
62709;SDS011;48770;51.624;5.886;2022-12-18T13:31:10;1.60;;;1.33;;
62709;SDS011;48770;51.624;5.886;2022-12-18T13:33:36;1.88;;;1.45;;
62709;SDS011;48770;51.624;5.886;2022-12-18T13:36:13;1.73;;;1.45;;
62709;SDS011;48770;51.624;5.886;2022-12-18T13:38:42;2.25;;;1.73;;
62709;SDS011;48770;51.624;5.886;2022-12-18T13:43:46;1.80;;;1.50;;
62709;SDS011;48770;51.624;5.886;2022-12-18T13:46:29;1.75;;;1.45;;
62709;SDS011;48770;51.624;5.886;2022-12-18T13:51:36;1.70;;;1.50;;
62709;SDS011;48770;51.624;5.886;2022-12-18T13:54:13;1.88;;;1.42;;
62709;SDS011;48770;51.624;5.886;2022-12-18T13:56:45;2.13;;;1.83;;
62709;SDS011;48770;51.624;5.886;2022-12-18T13:59:16;1.55;;;1.38;;
62709;SDS011;48770;51.624;5.886;2022-12-18T14:01:59;1.73;;;1.40;;
62709;SDS011;48770;51.624;5.886;2022-12-18T14:04:32;1.90;;;1.65;;
62709;SDS011;48770;51.624;5.886;2022-12-18T14:07:18;1.60;;;1.27;;
62709;SDS011;48770;51.624;5.886;2022-12-18T14:09:46;2.05;;;1.70;;
62709;SDS011;48770;51.624;5.886;2022-12-18T14:12:20;1.63;;;1.45;;
62709;SDS011;48770;51.624;5.886;2022-12-18T14:15:09;1.52;;;1.20;;
62709;SDS011;48770;51.624;5.886;2022-12-18T14:25:56;2.17;;;1.60;;
62709;SDS011;48770;51.624;5.886;2022-12-18T14:28:21;2.00;;;1.30;;
62709;SDS011;48770;51.624;5.886;2022-12-18T14:30:47;1.80;;;1.50;;
62709;SDS011;48770;51.624;5.886;2022-12-18T14:33:13;1.42;;;1.33;;
62709;SDS011;48770;51.624;5.886;2022-12-18T14:35:42;1.70;;;1.38;;
62709;SDS011;48770;51.624;5.886;2022-12-18T14:41:02;1.70;;;1.38;;
62709;SDS011;48770;51.624;5.886;2022-12-18T14:43:33;1.40;;;1.20;;
62709;SDS011;48770;51.624;5.886;2022-12-18T14:46:00;1.85;;;1.55;;
62709;SDS011;48770;51.624;5.886;2022-12-18T14:48:38;1.85;;;1.48;;
62709;SDS011;48770;51.624;5.886;2022-12-18T14:51:06;1.45;;;1.20;;
62709;SDS011;48770;51.624;5.886;2022-12-18T14:53:42;2.92;;;1.63;;
62709;SDS011;48770;51.624;5.886;2022-12-18T14:56:14;1.48;;;1.38;;
62709;SDS011;48770;51.624;5.886;2022-12-18T14:58:44;1.77;;;1.42;;
62709;SDS011;48770;51.624;5.886;2022-12-18T15:01:21;1.98;;;1.73;;
62709;SDS011;48770;51.624;5.886;2022-12-18T15:03:49;1.60;;;1.38;;
62709;SDS011;48770;51.624;5.886;2022-12-18T15:06:17;1.80;;;1.45;;
62709;SDS011;48770;51.624;5.886;2022-12-18T15:08:50;1.73;;;1.58;;
62709;SDS011;48770;51.624;5.886;2022-12-18T15:11:25;1.58;;;1.23;;
62709;SDS011;48770;51.624;5.886;2022-12-18T15:16:25;1.33;;;1.23;;
62709;SDS011;48770;51.624;5.886;2022-12-18T15:18:51;1.60;;;1.30;;
62709;SDS011;48770;51.624;5.886;2022-12-18T15:21:18;1.83;;;1.60;;
62709;SDS011;48770;51.624;5.886;2022-12-18T15:26:13;1.83;;;1.60;;
62709;SDS011;48770;51.624;5.886;2022-12-18T15:28:50;1.92;;;1.50;;
62709;SDS011;48770;51.624;5.886;2022-12-18T15:36:21;2.22;;;1.75;;
62709;SDS011;48770;51.624;5.886;2022-12-18T15:38:50;2.15;;;1.67;;
62709;SDS011;48770;51.624;5.886;2022-12-18T15:41:20;1.98;;;1.60;;
62709;SDS011;48770;51.624;5.886;2022-12-18T15:43:47;2.00;;;1.73;;
62709;SDS011;48770;51.624;5.886;2022-12-18T15:46:18;2.03;;;1.42;;
62709;SDS011;48770;51.624;5.886;2022-12-18T15:48:46;1.83;;;1.60;;
62709;SDS011;48770;51.624;5.886;2022-12-18T15:51:20;1.92;;;1.60;;
62709;SDS011;48770;51.624;5.886;2022-12-18T15:53:48;2.78;;;1.88;;
62709;SDS011;48770;51.624;5.886;2022-12-18T15:56:15;1.92;;;1.60;;
62709;SDS011;48770;51.624;5.886;2022-12-18T15:59:00;2.22;;;1.65;;
62709;SDS011;48770;51.624;5.886;2022-12-18T16:01:27;2.40;;;1.75;;
62709;SDS011;48770;51.624;5.886;2022-12-18T16:03:55;1.88;;;1.75;;
62709;SDS011;48770;51.624;5.886;2022-12-18T16:06:21;1.75;;;1.65;;
62709;SDS011;48770;51.624;5.886;2022-12-18T16:08:48;2.25;;;2.00;;
62709;SDS011;48770;51.624;5.886;2022-12-18T16:11:20;1.77;;;1.63;;
62709;SDS011;48770;51.624;5.886;2022-12-18T16:14:20;2.00;;;1.65;;
62709;SDS011;48770;51.624;5.886;2022-12-18T16:16:48;2.92;;;2.30;;
62709;SDS011;48770;51.624;5.886;2022-12-18T16:19:15;2.83;;;1.90;;
62709;SDS011;48770;51.624;5.886;2022-12-18T16:21:42;2.10;;;1.70;;
62709;SDS011;48770;51.624;5.886;2022-12-18T16:24:41;2.28;;;1.98;;
62709;SDS011;48770;51.624;5.886;2022-12-18T16:27:01;1.90;;;1.67;;
62709;SDS011;48770;51.624;5.886;2022-12-18T16:29:27;2.75;;;2.00;;
62709;SDS011;48770;51.624;5.886;2022-12-18T16:31:57;2.65;;;1.88;;
62709;SDS011;48770;51.624;5.886;2022-12-18T16:36:54;1.80;;;1.70;;
62709;SDS011;48770;51.624;5.886;2022-12-18T16:39:24;2.45;;;2.15;;
62709;SDS011;48770;51.624;5.886;2022-12-18T16:41:49;2.33;;;2.05;;
62709;SDS011;48770;51.624;5.886;2022-12-18T16:44:15;2.35;;;2.15;;
62709;SDS011;48770;51.624;5.886;2022-12-18T16:46:41;2.60;;;2.10;;
62709;SDS011;48770;51.624;5.886;2022-12-18T16:49:13;2.40;;;2.10;;
62709;SDS011;48770;51.624;5.886;2022-12-18T16:51:42;2.13;;;1.92;;
62709;SDS011;48770;51.624;5.886;2022-12-18T16:54:08;1.95;;;1.77;;
62709;SDS011;48770;51.624;5.886;2022-12-18T16:56:34;3.17;;;2.10;;
62709;SDS011;48770;51.624;5.886;2022-12-18T16:58:59;2.05;;;1.80;;
62709;SDS011;48770;51.624;5.886;2022-12-18T17:01:26;2.63;;;1.92;;
62709;SDS011;48770;51.624;5.886;2022-12-18T17:03:57;2.42;;;2.22;;
62709;SDS011;48770;51.624;5.886;2022-12-18T17:06:25;2.35;;;2.15;;
62709;SDS011;48770;51.624;5.886;2022-12-18T17:08:58;2.88;;;2.20;;
62709;SDS011;48770;51.624;5.886;2022-12-18T17:11:25;2.72;;;2.20;;
62709;SDS011;48770;51.624;5.886;2022-12-18T17:13:51;2.80;;;2.30;;